Terminal Aerodrome Forecast
Issued by NWS Sterling, VA

Current Version | Previous Version | Text Only | Print | Product List | Glossary Off
Versions: 1 2 3 4 5 6 7 8 9 10 11 12 13 14 15 16 17 18 19 20 21 22 23 24 25 26 27 28

000
FTUS41 KLWX 031739
TAFDCA
TAF
KDCA 031739Z 0318/0418 18009KT 6SM -FZRA OVC050
     FM032000 17007KT 2SM BR OVC015
      TEMPO 0323/0401 2SM -RA BR OVC010
     FM040100 20008KT 5SM BR OVC005
     FM041100 24005KT 3SM -RA BR OVC010=

USA.gov is the U.S. government's official web portal to all federal, state and local government web resources and services.